sensor_id;sensor_type;location;lat;lon;timestamp;temperature;humidity
6810;DHT22;3443;48.812;9.112;2022-10-16T00:01:31;15.40;99.90
6810;DHT22;3443;48.812;9.112;2022-10-16T00:03:58;15.40;99.90
6810;DHT22;3443;48.812;9.112;2022-10-16T00:06:25;15.40;99.90
6810;DHT22;3443;48.812;9.112;2022-10-16T00:08:51;15.40;99.90
6810;DHT22;3443;48.812;9.112;2022-10-16T00:11:23;15.40;99.90
6810;DHT22;3443;48.812;9.112;2022-10-16T00:13:51;15.40;99.90
6810;DHT22;3443;48.812;9.112;2022-10-16T00:16:17;15.40;99.90
6810;DHT22;3443;48.812;9.112;2022-10-16T00:18:43;15.30;99.90
6810;DHT22;3443;48.812;9.112;2022-10-16T00:21:12;15.30;99.90
6810;DHT22;3443;48.812;9.112;2022-10-16T00:23:39;15.30;99.90
6810;DHT22;3443;48.812;9.112;2022-10-16T00:26:07;15.20;99.90
6810;DHT22;3443;48.812;9.112;2022-10-16T00:28:34;15.30;99.90
6810;DHT22;3443;48.812;9.112;2022-10-16T00:31:04;15.30;99.90
6810;DHT22;3443;48.812;9.112;2022-10-16T00:33:30;15.30;99.90
6810;DHT22;3443;48.812;9.112;2022-10-16T00:35:58;15.30;99.90
6810;DHT22;3443;48.812;9.112;2022-10-16T00:38:24;15.20;99.90
6810;DHT22;3443;48.812;9.112;2022-10-16T00:40:50;15.20;99.90
6810;DHT22;3443;48.812;9.112;2022-10-16T00:46:17;15.20;99.90
6810;DHT22;3443;48.812;9.112;2022-10-16T00:48:55;15.20;99.90
6810;DHT22;3443;48.812;9.112;2022-10-16T00:51:28;15.20;99.90
6810;DHT22;3443;48.812;9.112;2022-10-16T00:53:55;15.30;99.90
6810;DHT22;3443;48.812;9.112;2022-10-16T00:56:21;15.30;99.90
6810;DHT22;3443;48.812;9.112;2022-10-16T00:58:47;15.60;99.90
6810;DHT22;3443;48.812;9.112;2022-10-16T01:01:13;15.60;99.90
6810;DHT22;3443;48.812;9.112;2022-10-16T01:03:39;15.70;99.90
6810;DHT22;3443;48.812;9.112;2022-10-16T01:06:24;15.70;99.90
6810;DHT22;3443;48.812;9.112;2022-10-16T01:09:16;15.70;99.90
6810;DHT22;3443;48.812;9.112;2022-10-16T01:11:54;15.70;99.90
6810;DHT22;3443;48.812;9.112;2022-10-16T01:14:56;15.80;99.90
6810;DHT22;3443;48.812;9.112;2022-10-16T01:17:55;15.80;99.90
6810;DHT22;3443;48.812;9.112;2022-10-16T01:20:33;15.80;99.90
6810;DHT22;3443;48.812;9.112;2022-10-16T01:28:25;15.70;99.90
6810;DHT22;3443;48.812;9.112;2022-10-16T01:30:55;15.70;99.90
6810;DHT22;3443;48.812;9.112;2022-10-16T01:33:36;15.70;99.90
6810;DHT22;3443;48.812;9.112;2022-10-16T01:36:15;14.70;99.90
6810;DHT22;3443;48.812;9.112;2022-10-16T01:38:44;15.70;99.90
6810;DHT22;3443;48.812;9.112;2022-10-16T01:41:21;15.70;99.90
6810;DHT22;3443;48.812;9.112;2022-10-16T01:44:08;15.60;99.90
6810;DHT22;3443;48.812;9.112;2022-10-16T01:46:36;15.60;99.90
6810;DHT22;3443;48.812;9.112;2022-10-16T01:49:03;15.60;99.90
6810;DHT22;3443;48.812;9.112;2022-10-16T01:51:30;15.50;99.90
6810;DHT22;3443;48.812;9.112;2022-10-16T01:53:59;15.50;99.90
6810;DHT22;3443;48.812;9.112;2022-10-16T01:56:26;15.50;99.90
6810;DHT22;3443;48.812;9.112;2022-10-16T01:59:00;15.50;99.90
6810;DHT22;3443;48.812;9.112;2022-10-16T02:01:29;15.50;99.90
6810;DHT22;3443;48.812;9.112;2022-10-16T02:03:58;15.40;99.90
6810;DHT22;3443;48.812;9.112;2022-10-16T02:06:27;15.40;99.90
6810;DHT22;3443;48.812;9.112;2022-10-16T02:08:53;15.40;99.90
6810;DHT22;3443;48.812;9.112;2022-10-16T02:11:19;15.40;99.90
6810;DHT22;3443;48.812;9.112;2022-10-16T02:14:00;15.30;99.90
6810;DHT22;3443;48.812;9.112;2022-10-16T02:16:34;15.30;99.90
6810;DHT22;3443;48.812;9.112;2022-10-16T02:19:01;15.40;99.90
6810;DHT22;3443;48.812;9.112;2022-10-16T02:21:32;15.40;99.90
6810;DHT22;3443;48.812;9.112;2022-10-16T02:24:18;15.40;99.90
6810;DHT22;3443;48.812;9.112;2022-10-16T02:26:59;15.40;99.90
6810;DHT22;3443;48.812;9.112;2022-10-16T02:29:27;15.40;99.90
6810;DHT22;3443;48.812;9.112;2022-10-16T02:31:56;15.30;99.90
6810;DHT22;3443;48.812;9.112;2022-10-16T02:34:24;15.30;99.90
6810;DHT22;3443;48.812;9.112;2022-10-16T02:36:51;15.30;99.90
6810;DHT22;3443;48.812;9.112;2022-10-16T02:39:18;15.30;99.90
6810;DHT22;3443;48.812;9.112;2022-10-16T02:41:45;15.30;99.90
6810;DHT22;3443;48.812;9.112;2022-10-16T02:44:11;15.30;99.90
6810;DHT22;3443;48.812;9.112;2022-10-16T02:46:36;15.20;99.90
6810;DHT22;3443;48.812;9.112;2022-10-16T02:49:02;15.20;99.90
6810;DHT22;3443;48.812;9.112;2022-10-16T02:51:28;15.20;99.90
6810;DHT22;3443;48.812;9.112;2022-10-16T02:53:54;15.20;99.90
6810;DHT22;3443;48.812;9.112;2022-10-16T02:56:20;15.20;99.90
6810;DHT22;3443;48.812;9.112;2022-10-16T02:58:45;15.20;99.90
6810;DHT22;3443;48.812;9.112;2022-10-16T03:01:11;15.20;99.90
6810;DHT22;3443;48.812;9.112;2022-10-16T03:03:41;15.20;99.90
6810;DHT22;3443;48.812;9.112;2022-10-16T03:06:06;15.20;99.90
6810;DHT22;3443;48.812;9.112;2022-10-16T03:08:32;15.10;99.90
6810;DHT22;3443;48.812;9.112;2022-10-16T03:10:58;15.10;99.90
6810;DHT22;3443;48.812;9.112;2022-10-16T03:13:23;15.10;99.90
6810;DHT22;3443;48.812;9.112;2022-10-16T03:15:49;15.10;99.90
6810;DHT22;3443;48.812;9.112;2022-10-16T03:18:15;15.10;99.90
6810;DHT22;3443;48.812;9.112;2022-10-16T03:20:42;15.10;99.90
6810;DHT22;3443;48.812;9.112;2022-10-16T03:23:08;15.10;99.90
6810;DHT22;3443;48.812;9.112;2022-10-16T03:25:34;15.10;99.90
6810;DHT22;3443;48.812;9.112;2022-10-16T03:28:00;15.10;99.90
6810;DHT22;3443;48.812;9.112;2022-10-16T03:30:25;15.10;99.90
6810;DHT22;3443;48.812;9.112;2022-10-16T03:32:51;15.00;99.90
6810;DHT22;3443;48.812;9.112;2022-10-16T03:35:20;15.00;99.90
6810;DHT22;3443;48.812;9.112;2022-10-16T03:37:46;15.00;99.90
6810;DHT22;3443;48.812;9.112;2022-10-16T03:40:12;15.00;99.90
6810;DHT22;3443;48.812;9.112;2022-10-16T03:42:41;15.00;99.90
6810;DHT22;3443;48.812;9.112;2022-10-16T03:45:07;15.00;99.90
6810;DHT22;3443;48.812;9.112;2022-10-16T03:47:33;15.00;99.90
6810;DHT22;3443;48.812;9.112;2022-10-16T03:49:59;15.00;99.90
6810;DHT22;3443;48.812;9.112;2022-10-16T03:52:25;15.00;99.90
6810;DHT22;3443;48.812;9.112;2022-10-16T03:54:51;15.00;99.90
6810;DHT22;3443;48.812;9.112;2022-10-16T03:57:17;15.00;99.90
6810;DHT22;3443;48.812;9.112;2022-10-16T03:59:43;15.00;99.90
6810;DHT22;3443;48.812;9.112;2022-10-16T04:02:09;14.90;99.90
6810;DHT22;3443;48.812;9.112;2022-10-16T04:04:35;15.00;99.90
6810;DHT22;3443;48.812;9.112;2022-10-16T04:07:01;14.90;99.90
6810;DHT22;3443;48.812;9.112;2022-10-16T04:09:27;14.90;99.90
6810;DHT22;3443;48.812;9.112;2022-10-16T04:11:52;14.80;99.90
6810;DHT22;3443;48.812;9.112;2022-10-16T04:14:18;14.80;99.90
6810;DHT22;3443;48.812;9.112;2022-10-16T04:16:44;14.80;99.90
6810;DHT22;3443;48.812;9.112;2022-10-16T04:19:10;14.80;99.90
6810;DHT22;3443;48.812;9.112;2022-10-16T04:21:36;14.80;99.90
6810;DHT22;3443;48.812;9.112;2022-10-16T04:24:02;14.80;99.90
6810;DHT22;3443;48.812;9.112;2022-10-16T04:26:29;14.80;99.90
6810;DHT22;3443;48.812;9.112;2022-10-16T04:28:54;14.80;99.90
6810;DHT22;3443;48.812;9.112;2022-10-16T04:31:20;14.70;99.90
6810;DHT22;3443;48.812;9.112;2022-10-16T04:33:46;14.70;99.90
6810;DHT22;3443;48.812;9.112;2022-10-16T04:36:12;14.70;99.90
6810;DHT22;3443;48.812;9.112;2022-10-16T04:38:38;14.70;99.90
6810;DHT22;3443;48.812;9.112;2022-10-16T04:41:05;14.80;99.90
6810;DHT22;3443;48.812;9.112;2022-10-16T04:43:31;14.80;99.90
6810;DHT22;3443;48.812;9.112;2022-10-16T04:45:57;14.90;99.90
6810;DHT22;3443;48.812;9.112;2022-10-16T04:48:23;14.80;99.90
6810;DHT22;3443;48.812;9.112;2022-10-16T04:50:49;14.90;99.90
6810;DHT22;3443;48.812;9.112;2022-10-16T04:53:14;14.90;99.90
6810;DHT22;3443;48.812;9.112;2022-10-16T04:55:41;15.00;99.90
6810;DHT22;3443;48.812;9.112;2022-10-16T04:58:07;14.90;99.90
6810;DHT22;3443;48.812;9.112;2022-10-16T05:00:34;14.90;99.90
6810;DHT22;3443;48.812;9.112;2022-10-16T05:02:59;14.90;99.90
6810;DHT22;3443;48.812;9.112;2022-10-16T05:05:27;14.80;99.90
6810;DHT22;3443;48.812;9.112;2022-10-16T05:07:52;14.80;99.90
6810;DHT22;3443;48.812;9.112;2022-10-16T05:10:18;14.80;99.90
6810;DHT22;3443;48.812;9.112;2022-10-16T05:12:44;14.90;99.90
6810;DHT22;3443;48.812;9.112;2022-10-16T05:15:10;14.90;99.90
6810;DHT22;3443;48.812;9.112;2022-10-16T05:17:36;14.80;99.90
6810;DHT22;3443;48.812;9.112;2022-10-16T05:20:02;14.80;99.90
6810;DHT22;3443;48.812;9.112;2022-10-16T05:22:28;14.80;99.90
6810;DHT22;3443;48.812;9.112;2022-10-16T05:24:54;14.80;99.90
6810;DHT22;3443;48.812;9.112;2022-10-16T05:27:20;14.70;99.90
6810;DHT22;3443;48.812;9.112;2022-10-16T05:29:47;14.70;99.90
6810;DHT22;3443;48.812;9.112;2022-10-16T05:32:14;14.70;99.90
6810;DHT22;3443;48.812;9.112;2022-10-16T05:34:40;14.70;99.90
6810;DHT22;3443;48.812;9.112;2022-10-16T05:37:06;14.80;99.90
6810;DHT22;3443;48.812;9.112;2022-10-16T05:39:32;14.70;99.90
6810;DHT22;3443;48.812;9.112;2022-10-16T05:41:57;14.70;99.90
6810;DHT22;3443;48.812;9.112;2022-10-16T05:44:23;14.70;99.90
6810;DHT22;3443;48.812;9.112;2022-10-16T05:46:49;14.70;99.90
6810;DHT22;3443;48.812;9.112;2022-10-16T05:49:15;14.70;99.90
6810;DHT22;3443;48.812;9.112;2022-10-16T05:51:41;14.80;99.90
6810;DHT22;3443;48.812;9.112;2022-10-16T05:54:07;14.80;99.90
6810;DHT22;3443;48.812;9.112;2022-10-16T05:56:33;14.80;99.90
6810;DHT22;3443;48.812;9.112;2022-10-16T05:58:59;14.80;99.90
6810;DHT22;3443;48.812;9.112;2022-10-16T06:01:25;14.90;99.90
6810;DHT22;3443;48.812;9.112;2022-10-16T06:03:51;14.90;99.90
6810;DHT22;3443;48.812;9.112;2022-10-16T06:06:22;14.80;99.90
6810;DHT22;3443;48.812;9.112;2022-10-16T06:08:49;14.90;99.90
6810;DHT22;3443;48.812;9.112;2022-10-16T06:11:17;14.90;99.90
6810;DHT22;3443;48.812;9.112;2022-10-16T06:13:44;14.90;99.90
6810;DHT22;3443;48.812;9.112;2022-10-16T06:16:12;15.10;99.90
6810;DHT22;3443;48.812;9.112;2022-10-16T06:18:38;15.20;99.90
6810;DHT22;3443;48.812;9.112;2022-10-16T06:21:30;15.30;99.90
6810;DHT22;3443;48.812;9.112;2022-10-16T06:23:56;15.20;99.90
6810;DHT22;3443;48.812;9.112;2022-10-16T06:26:25;15.30;99.90
6810;DHT22;3443;48.812;9.112;2022-10-16T06:28:51;15.30;99.90
6810;DHT22;3443;48.812;9.112;2022-10-16T06:31:19;15.30;99.90
6810;DHT22;3443;48.812;9.112;2022-10-16T06:33:45;15.30;99.90
6810;DHT22;3443;48.812;9.112;2022-10-16T06:36:15;15.30;99.90
6810;DHT22;3443;48.812;9.112;2022-10-16T06:38:42;15.30;99.90
6810;DHT22;3443;48.812;9.112;2022-10-16T06:41:09;15.40;99.90
6810;DHT22;3443;48.812;9.112;2022-10-16T06:43:36;15.40;99.90
6810;DHT22;3443;48.812;9.112;2022-10-16T06:46:03;15.40;99.90
6810;DHT22;3443;48.812;9.112;2022-10-16T06:48:30;15.40;99.90
6810;DHT22;3443;48.812;9.112;2022-10-16T06:53:23;15.50;99.90
6810;DHT22;3443;48.812;9.112;2022-10-16T06:55:48;15.60;99.90
6810;DHT22;3443;48.812;9.112;2022-10-16T06:58:14;15.60;99.90
6810;DHT22;3443;48.812;9.112;2022-10-16T07:00:40;15.60;99.90
6810;DHT22;3443;48.812;9.112;2022-10-16T07:03:06;15.60;99.90
6810;DHT22;3443;48.812;9.112;2022-10-16T07:05:31;15.70;99.90
6810;DHT22;3443;48.812;9.112;2022-10-16T07:07:57;15.80;99.90
6810;DHT22;3443;48.812;9.112;2022-10-16T07:10:23;15.90;99.90
6810;DHT22;3443;48.812;9.112;2022-10-16T07:12:51;16.00;99.90
6810;DHT22;3443;48.812;9.112;2022-10-16T07:15:17;16.00;99.90
6810;DHT22;3443;48.812;9.112;2022-10-16T07:17:43;16.20;99.90
6810;DHT22;3443;48.812;9.112;2022-10-16T07:20:09;16.20;99.90
6810;DHT22;3443;48.812;9.112;2022-10-16T07:22:34;16.20;99.90
6810;DHT22;3443;48.812;9.112;2022-10-16T07:25:00;16.20;99.90
6810;DHT22;3443;48.812;9.112;2022-10-16T07:27:26;16.20;99.90
6810;DHT22;3443;48.812;9.112;2022-10-16T07:29:51;16.30;99.90
6810;DHT22;3443;48.812;9.112;2022-10-16T07:32:17;16.30;99.90
6810;DHT22;3443;48.812;9.112;2022-10-16T07:34:43;16.30;99.90
6810;DHT22;3443;48.812;9.112;2022-10-16T07:37:09;16.20;99.90
6810;DHT22;3443;48.812;9.112;2022-10-16T07:39:37;16.20;99.90
6810;DHT22;3443;48.812;9.112;2022-10-16T07:42:03;16.10;99.90
6810;DHT22;3443;48.812;9.112;2022-10-16T07:44:28;16.20;99.90
6810;DHT22;3443;48.812;9.112;2022-10-16T07:46:54;16.20;99.90
6810;DHT22;3443;48.812;9.112;2022-10-16T07:49:20;16.30;99.90
6810;DHT22;3443;48.812;9.112;2022-10-16T07:51:46;16.30;99.90
6810;DHT22;3443;48.812;9.112;2022-10-16T07:54:11;16.40;99.90
6810;DHT22;3443;48.812;9.112;2022-10-16T07:56:37;16.50;99.90
6810;DHT22;3443;48.812;9.112;2022-10-16T07:59:03;16.50;99.90
6810;DHT22;3443;48.812;9.112;2022-10-16T08:01:29;16.60;99.90
6810;DHT22;3443;48.812;9.112;2022-10-16T08:03:54;16.70;99.90
6810;DHT22;3443;48.812;9.112;2022-10-16T08:06:21;16.80;99.90
6810;DHT22;3443;48.812;9.112;2022-10-16T08:08:47;16.90;99.90
6810;DHT22;3443;48.812;9.112;2022-10-16T08:11:13;17.10;99.90
6810;DHT22;3443;48.812;9.112;2022-10-16T08:13:40;17.10;99.90
6810;DHT22;3443;48.812;9.112;2022-10-16T08:16:06;17.30;99.90
6810;DHT22;3443;48.812;9.112;2022-10-16T08:18:37;17.30;99.90
6810;DHT22;3443;48.812;9.112;2022-10-16T08:21:04;17.40;99.90
6810;DHT22;3443;48.812;9.112;2022-10-16T08:23:30;17.60;99.90
6810;DHT22;3443;48.812;9.112;2022-10-16T08:26:01;17.80;99.90
6810;DHT22;3443;48.812;9.112;2022-10-16T08:28:27;17.90;99.90
6810;DHT22;3443;48.812;9.112;2022-10-16T08:30:53;17.90;99.90
6810;DHT22;3443;48.812;9.112;2022-10-16T08:33:19;18.10;99.90
6810;DHT22;3443;48.812;9.112;2022-10-16T08:35:52;18.20;99.90
6810;DHT22;3443;48.812;9.112;2022-10-16T08:38:19;18.20;99.90
6810;DHT22;3443;48.812;9.112;2022-10-16T08:40:45;18.20;99.90
6810;DHT22;3443;48.812;9.112;2022-10-16T08:51:03;18.40;99.90
6810;DHT22;3443;48.812;9.112;2022-10-16T08:54:05;18.50;99.90
6810;DHT22;3443;48.812;9.112;2022-10-16T08:56:31;18.60;99.90
6810;DHT22;3443;48.812;9.112;2022-10-16T08:58:59;18.60;99.90
6810;DHT22;3443;48.812;9.112;2022-10-16T09:01:37;18.60;99.90
6810;DHT22;3443;48.812;9.112;2022-10-16T09:07:24;18.60;99.90
6810;DHT22;3443;48.812;9.112;2022-10-16T09:10:01;18.60;99.90
6810;DHT22;3443;48.812;9.112;2022-10-16T09:12:39;18.50;99.90
6810;DHT22;3443;48.812;9.112;2022-10-16T09:21:18;18.50;99.90
6810;DHT22;3443;48.812;9.112;2022-10-16T09:23:45;18.50;99.90
6810;DHT22;3443;48.812;9.112;2022-10-16T09:26:13;18.60;99.90
6810;DHT22;3443;48.812;9.112;2022-10-16T09:28:41;18.50;99.90
6810;DHT22;3443;48.812;9.112;2022-10-16T09:31:18;18.50;99.90
6810;DHT22;3443;48.812;9.112;2022-10-16T09:34:13;18.50;99.90
6810;DHT22;3443;48.812;9.112;2022-10-16T09:36:42;18.50;99.90
6810;DHT22;3443;48.812;9.112;2022-10-16T09:39:10;18.60;99.90
6810;DHT22;3443;48.812;9.112;2022-10-16T09:41:42;18.60;99.90
6810;DHT22;3443;48.812;9.112;2022-10-16T09:44:23;18.60;99.90
6810;DHT22;3443;48.812;9.112;2022-10-16T09:47:03;18.70;99.90
6810;DHT22;3443;48.812;9.112;2022-10-16T09:49:28;18.70;99.90
6810;DHT22;3443;48.812;9.112;2022-10-16T09:52:12;18.70;99.90
6810;DHT22;3443;48.812;9.112;2022-10-16T09:54:49;18.80;99.90
6810;DHT22;3443;48.812;9.112;2022-10-16T09:57:15;19.00;99.90
6810;DHT22;3443;48.812;9.112;2022-10-16T09:59:55;19.10;99.90
6810;DHT22;3443;48.812;9.112;2022-10-16T10:02:50;19.30;99.90
6810;DHT22;3443;48.812;9.112;2022-10-16T10:05:24;19.50;99.90
6810;DHT22;3443;48.812;9.112;2022-10-16T10:07:58;19.60;99.90
6810;DHT22;3443;48.812;9.112;2022-10-16T10:10:30;20.10;99.90
6810;DHT22;3443;48.812;9.112;2022-10-16T10:12:56;19.70;99.90
6810;DHT22;3443;48.812;9.112;2022-10-16T10:15:23;19.80;99.90
6810;DHT22;3443;48.812;9.112;2022-10-16T10:17:54;19.80;99.90
6810;DHT22;3443;48.812;9.112;2022-10-16T10:20:32;20.00;99.90
6810;DHT22;3443;48.812;9.112;2022-10-16T10:23:00;20.20;99.90
6810;DHT22;3443;48.812;9.112;2022-10-16T10:25:42;20.30;99.90
6810;DHT22;3443;48.812;9.112;2022-10-16T10:31:17;20.70;99.90
6810;DHT22;3443;48.812;9.112;2022-10-16T10:36:40;20.80;99.90
6810;DHT22;3443;48.812;9.112;2022-10-16T10:50:24;21.30;99.90
6810;DHT22;3443;48.812;9.112;2022-10-16T10:55:22;21.40;99.90
6810;DHT22;3443;48.812;9.112;2022-10-16T10:58:26;21.40;99.90
6810;DHT22;3443;48.812;9.112;2022-10-16T11:00:57;21.40;99.90
6810;DHT22;3443;48.812;9.112;2022-10-16T11:06:24;21.30;99.90
6810;DHT22;3443;48.812;9.112;2022-10-16T11:11:40;21.30;99.90
6810;DHT22;3443;48.812;9.112;2022-10-16T11:14:22;21.30;99.90
6810;DHT22;3443;48.812;9.112;2022-10-16T11:19:53;21.30;99.90
6810;DHT22;3443;48.812;9.112;2022-10-16T11:22:34;21.40;99.90
6810;DHT22;3443;48.812;9.112;2022-10-16T11:25:15;21.40;99.90
6810;DHT22;3443;48.812;9.112;2022-10-16T11:27:47;21.40;99.90
6810;DHT22;3443;48.812;9.112;2022-10-16T11:30:21;21.40;99.90
6810;DHT22;3443;48.812;9.112;2022-10-16T11:35:53;21.60;99.90
6810;DHT22;3443;48.812;9.112;2022-10-16T11:46:30;22.10;99.90
6810;DHT22;3443;48.812;9.112;2022-10-16T11:49:07;22.00;99.90
6810;DHT22;3443;48.812;9.112;2022-10-16T11:51:40;22.10;99.90
6810;DHT22;3443;48.812;9.112;2022-10-16T11:56:52;22.10;99.90
6810;DHT22;3443;48.812;9.112;2022-10-16T11:59:30;22.20;99.90
6810;DHT22;3443;48.812;9.112;2022-10-16T12:02:38;22.30;99.90
6810;DHT22;3443;48.812;9.112;2022-10-16T12:10:28;22.60;99.90
6810;DHT22;3443;48.812;9.112;2022-10-16T12:12:55;22.50;99.90
6810;DHT22;3443;48.812;9.112;2022-10-16T12:15:27;22.40;99.90
6810;DHT22;3443;48.812;9.112;2022-10-16T12:17:54;22.30;99.90
6810;DHT22;3443;48.812;9.112;2022-10-16T12:23:19;22.30;99.90
6810;DHT22;3443;48.812;9.112;2022-10-16T12:25:54;22.20;99.90
6810;DHT22;3443;48.812;9.112;2022-10-16T12:28:22;22.20;99.90
6810;DHT22;3443;48.812;9.112;2022-10-16T12:31:05;22.20;99.90
6810;DHT22;3443;48.812;9.112;2022-10-16T12:33:35;22.20;99.90
6810;DHT22;3443;48.812;9.112;2022-10-16T12:36:31;22.40;99.90
6810;DHT22;3443;48.812;9.112;2022-10-16T12:38:57;22.70;99.90
6810;DHT22;3443;48.812;9.112;2022-10-16T12:41:32;22.80;99.90
6810;DHT22;3443;48.812;9.112;2022-10-16T12:43:59;22.90;99.90
6810;DHT22;3443;48.812;9.112;2022-10-16T12:51:40;22.90;99.90
6810;DHT22;3443;48.812;9.112;2022-10-16T12:54:15;22.90;99.90
6810;DHT22;3443;48.812;9.112;2022-10-16T13:05:26;22.80;99.90
6810;DHT22;3443;48.812;9.112;2022-10-16T13:13:18;22.60;99.90
6810;DHT22;3443;48.812;9.112;2022-10-16T13:18:58;22.60;99.90
6810;DHT22;3443;48.812;9.112;2022-10-16T13:27:14;22.70;99.90
6810;DHT22;3443;48.812;9.112;2022-10-16T13:29:41;22.60;99.90
6810;DHT22;3443;48.812;9.112;2022-10-16T13:32:10;22.60;99.90
6810;DHT22;3443;48.812;9.112;2022-10-16T13:34:47;22.50;99.90
6810;DHT22;3443;48.812;9.112;2022-10-16T13:37:19;22.50;99.90
6810;DHT22;3443;48.812;9.112;2022-10-16T13:39:45;22.40;99.90
6810;DHT22;3443;48.812;9.112;2022-10-16T13:44:49;22.30;99.90
6810;DHT22;3443;48.812;9.112;2022-10-16T13:47:21;22.20;99.90
6810;DHT22;3443;48.812;9.112;2022-10-16T13:50:19;22.30;99.90
6810;DHT22;3443;48.812;9.112;2022-10-16T13:52:45;22.30;99.90
6810;DHT22;3443;48.812;9.112;2022-10-16T13:55:12;22.40;99.90
6810;DHT22;3443;48.812;9.112;2022-10-16T13:57:39;22.40;99.90
6810;DHT22;3443;48.812;9.112;2022-10-16T14:00:24;22.40;99.90
6810;DHT22;3443;48.812;9.112;2022-10-16T14:03:00;22.30;99.90
6810;DHT22;3443;48.812;9.112;2022-10-16T14:05:27;22.20;99.90
6810;DHT22;3443;48.812;9.112;2022-10-16T14:07:54;22.10;99.90
6810;DHT22;3443;48.812;9.112;2022-10-16T14:10:31;22.00;99.90
6810;DHT22;3443;48.812;9.112;2022-10-16T14:13:07;21.90;99.90
6810;DHT22;3443;48.812;9.112;2022-10-16T14:15:38;21.80;99.90
6810;DHT22;3443;48.812;9.112;2022-10-16T14:18:04;21.80;99.90
6810;DHT22;3443;48.812;9.112;2022-10-16T14:20:33;22.00;99.90
6810;DHT22;3443;48.812;9.112;2022-10-16T14:23:04;22.00;99.90
6810;DHT22;3443;48.812;9.112;2022-10-16T14:25:31;22.00;99.90
6810;DHT22;3443;48.812;9.112;2022-10-16T14:30:57;21.90;99.90
6810;DHT22;3443;48.812;9.112;2022-10-16T14:33:30;21.90;99.90
6810;DHT22;3443;48.812;9.112;2022-10-16T14:36:00;21.80;99.90
6810;DHT22;3443;48.812;9.112;2022-10-16T14:38:27;21.80;99.90
6810;DHT22;3443;48.812;9.112;2022-10-16T14:40:53;21.80;99.90
6810;DHT22;3443;48.812;9.112;2022-10-16T14:45:55;21.90;99.90
6810;DHT22;3443;48.812;9.112;2022-10-16T14:48:22;21.90;99.90
6810;DHT22;3443;48.812;9.112;2022-10-16T14:50:48;21.90;99.90
6810;DHT22;3443;48.812;9.112;2022-10-16T14:53:14;22.00;99.90
6810;DHT22;3443;48.812;9.112;2022-10-16T14:55:41;21.90;99.90
6810;DHT22;3443;48.812;9.112;2022-10-16T14:58:19;21.80;99.90
6810;DHT22;3443;48.812;9.112;2022-10-16T15:00:45;21.80;99.90
6810;DHT22;3443;48.812;9.112;2022-10-16T15:03:11;21.70;99.90
6810;DHT22;3443;48.812;9.112;2022-10-16T15:05:37;21.70;99.90
6810;DHT22;3443;48.812;9.112;2022-10-16T15:08:03;21.70;99.90
6810;DHT22;3443;48.812;9.112;2022-10-16T15:10:31;21.70;99.90
6810;DHT22;3443;48.812;9.112;2022-10-16T15:12:58;21.70;99.90
6810;DHT22;3443;48.812;9.112;2022-10-16T15:15:37;21.60;99.90
6810;DHT22;3443;48.812;9.112;2022-10-16T15:18:04;21.70;99.90
6810;DHT22;3443;48.812;9.112;2022-10-16T15:20:34;21.60;99.90
6810;DHT22;3443;48.812;9.112;2022-10-16T15:23:03;21.60;99.90
6810;DHT22;3443;48.812;9.112;2022-10-16T15:25:34;21.50;99.90
6810;DHT22;3443;48.812;9.112;2022-10-16T15:28:01;21.40;99.90
6810;DHT22;3443;48.812;9.112;2022-10-16T15:30:27;21.30;99.90
6810;DHT22;3443;48.812;9.112;2022-10-16T15:32:53;21.20;99.90
6810;DHT22;3443;48.812;9.112;2022-10-16T15:35:19;21.30;99.90
6810;DHT22;3443;48.812;9.112;2022-10-16T15:37:46;21.50;99.90
6810;DHT22;3443;48.812;9.112;2022-10-16T15:40:12;21.20;99.90
6810;DHT22;3443;48.812;9.112;2022-10-16T15:42:38;21.10;99.90
6810;DHT22;3443;48.812;9.112;2022-10-16T15:45:05;21.10;99.90
6810;DHT22;3443;48.812;9.112;2022-10-16T15:47:32;21.00;99.90
6810;DHT22;3443;48.812;9.112;2022-10-16T15:49:57;21.00;99.90
6810;DHT22;3443;48.812;9.112;2022-10-16T15:52:23;21.00;99.90
6810;DHT22;3443;48.812;9.112;2022-10-16T15:54:49;20.90;99.90
6810;DHT22;3443;48.812;9.112;2022-10-16T15:57:15;20.90;99.90
6810;DHT22;3443;48.812;9.112;2022-10-16T15:59:40;20.80;99.90
6810;DHT22;3443;48.812;9.112;2022-10-16T16:02:07;20.80;99.90
6810;DHT22;3443;48.812;9.112;2022-10-16T16:04:33;20.70;99.90
6810;DHT22;3443;48.812;9.112;2022-10-16T16:06:59;20.60;99.90
6810;DHT22;3443;48.812;9.112;2022-10-16T16:09:24;20.50;99.90
6810;DHT22;3443;48.812;9.112;2022-10-16T16:11:50;20.40;99.90
6810;DHT22;3443;48.812;9.112;2022-10-16T16:14:18;20.30;99.90
6810;DHT22;3443;48.812;9.112;2022-10-16T16:16:45;20.30;99.90
6810;DHT22;3443;48.812;9.112;2022-10-16T16:19:10;20.10;99.90
6810;DHT22;3443;48.812;9.112;2022-10-16T16:21:36;20.00;99.90
6810;DHT22;3443;48.812;9.112;2022-10-16T16:24:02;19.90;99.90
6810;DHT22;3443;48.812;9.112;2022-10-16T16:26:34;19.80;99.90
6810;DHT22;3443;48.812;9.112;2022-10-16T16:29:03;19.70;99.90
6810;DHT22;3443;48.812;9.112;2022-10-16T16:31:30;19.60;99.90
6810;DHT22;3443;48.812;9.112;2022-10-16T16:33:57;19.50;99.90
6810;DHT22;3443;48.812;9.112;2022-10-16T16:36:24;19.40;99.90
6810;DHT22;3443;48.812;9.112;2022-10-16T16:38:52;19.30;99.90
6810;DHT22;3443;48.812;9.112;2022-10-16T16:41:23;19.30;99.90
6810;DHT22;3443;48.812;9.112;2022-10-16T16:43:50;19.20;99.90
6810;DHT22;3443;48.812;9.112;2022-10-16T16:46:20;19.10;99.90
6810;DHT22;3443;48.812;9.112;2022-10-16T16:48:46;19.00;99.90
6810;DHT22;3443;48.812;9.112;2022-10-16T16:51:16;18.90;99.90
6810;DHT22;3443;48.812;9.112;2022-10-16T16:53:46;18.90;99.90
6810;DHT22;3443;48.812;9.112;2022-10-16T16:56:12;18.80;99.90
6810;DHT22;3443;48.812;9.112;2022-10-16T16:58:38;18.80;99.90
6810;DHT22;3443;48.812;9.112;2022-10-16T17:01:04;18.70;99.90
6810;DHT22;3443;48.812;9.112;2022-10-16T17:03:34;18.70;99.90
6810;DHT22;3443;48.812;9.112;2022-10-16T17:06:06;18.60;99.90
6810;DHT22;3443;48.812;9.112;2022-10-16T17:08:34;18.50;99.90
6810;DHT22;3443;48.812;9.112;2022-10-16T17:11:00;18.40;99.90
6810;DHT22;3443;48.812;9.112;2022-10-16T17:13:29;18.40;99.90
6810;DHT22;3443;48.812;9.112;2022-10-16T17:15:55;18.30;99.90
6810;DHT22;3443;48.812;9.112;2022-10-16T17:18:23;18.20;99.90
6810;DHT22;3443;48.812;9.112;2022-10-16T17:20:49;18.20;99.90
6810;DHT22;3443;48.812;9.112;2022-10-16T17:23:17;18.10;99.90
6810;DHT22;3443;48.812;9.112;2022-10-16T17:25:44;18.00;99.90
6810;DHT22;3443;48.812;9.112;2022-10-16T17:28:10;17.90;99.90
6810;DHT22;3443;48.812;9.112;2022-10-16T17:30:42;17.90;99.90
6810;DHT22;3443;48.812;9.112;2022-10-16T17:33:09;17.90;99.90
6810;DHT22;3443;48.812;9.112;2022-10-16T17:35:42;17.80;99.90
6810;DHT22;3443;48.812;9.112;2022-10-16T17:38:10;17.80;99.90
6810;DHT22;3443;48.812;9.112;2022-10-16T17:40:37;17.70;99.90
6810;DHT22;3443;48.812;9.112;2022-10-16T17:43:03;17.70;99.90
6810;DHT22;3443;48.812;9.112;2022-10-16T17:45:29;17.70;99.90
6810;DHT22;3443;48.812;9.112;2022-10-16T17:47:55;17.60;99.90
6810;DHT22;3443;48.812;9.112;2022-10-16T17:50:21;17.60;99.90
6810;DHT22;3443;48.812;9.112;2022-10-16T17:52:46;17.50;99.90
6810;DHT22;3443;48.812;9.112;2022-10-16T17:55:12;17.40;99.90
6810;DHT22;3443;48.812;9.112;2022-10-16T17:57:38;17.40;99.90
6810;DHT22;3443;48.812;9.112;2022-10-16T18:00:05;17.40;99.90
6810;DHT22;3443;48.812;9.112;2022-10-16T18:02:31;17.40;99.90
6810;DHT22;3443;48.812;9.112;2022-10-16T18:04:57;17.30;99.90
6810;DHT22;3443;48.812;9.112;2022-10-16T18:07:23;17.30;99.90
6810;DHT22;3443;48.812;9.112;2022-10-16T18:09:49;17.20;99.90